createdAt,value
2018-08-20T00:02:16.826Z,99131.34
2018-08-20T00:05:22.461Z,99126.80
2018-08-20T00:08:27.410Z,99123.72
2018-08-20T00:11:32.353Z,99126.78
2018-08-20T00:14:37.434Z,99122.80
2018-08-20T00:17:42.352Z,99120.52
2018-08-20T00:20:47.484Z,99115.91
2018-08-20T00:23:52.399Z,99121.84
2018-08-20T00:26:59.236Z,99117.35
2018-08-20T00:30:05.588Z,99117.30
2018-08-20T00:33:10.741Z,99112.65
2018-08-20T00:36:15.648Z,99115.09
2018-08-20T00:39:20.580Z,99115.09
2018-08-20T00:42:25.492Z,99110.48
2018-08-20T00:45:30.422Z,99112.65
2018-08-20T00:48:35.377Z,99115.23
2018-08-20T00:51:40.321Z,99108.27
2018-08-20T00:54:45.293Z,99115.55
2018-08-20T00:57:50.212Z,99114.34
2018-08-20T01:00:55.099Z,99118.34
2018-08-20T01:04:00.703Z,99111.84
2018-08-20T01:07:05.647Z,99117.51
2018-08-20T01:10:10.565Z,99114.03
2018-08-20T01:13:15.460Z,99109.41
2018-08-20T01:16:20.365Z,99109.87
2018-08-20T01:19:25.264Z,99111.84
2018-08-20T01:22:30.156Z,99112.07
2018-08-20T01:25:35.039Z,99112.89
2018-08-20T01:28:39.969Z,99107.61
2018-08-20T01:31:44.865Z,99105.97
2018-08-20T01:34:49.760Z,99111.16
2018-08-20T01:37:54.792Z,99113.19
2018-08-20T01:40:59.672Z,99113.25
2018-08-20T01:44:04.577Z,99108.78
2018-08-20T01:47:09.465Z,99112.84
2018-08-20T01:50:14.384Z,99114.04
2018-08-20T01:53:19.288Z,99118.13
2018-08-20T01:56:24.181Z,99117.30
2018-08-20T01:59:29.228Z,99114.55
2018-08-20T02:02:34.166Z,99118.84
2018-08-20T02:05:39.081Z,99116.16
2018-08-20T02:08:44.013Z,99113.21
2018-08-20T02:11:48.901Z,99110.81
2018-08-20T02:14:53.785Z,99107.30
2018-08-20T02:17:58.720Z,99109.48
2018-08-20T02:21:03.651Z,99106.72
2018-08-20T02:24:08.570Z,99110.61
2018-08-20T02:27:13.457Z,99111.20
2018-08-20T02:30:18.348Z,99103.74
2018-08-20T02:33:23.277Z,99106.02
2018-08-20T02:36:28.165Z,99108.92
2018-08-20T02:39:33.045Z,99098.39
2018-08-20T02:42:37.989Z,99102.75
2018-08-20T02:45:42.891Z,99099.17
2018-08-20T02:48:47.792Z,99100.63
2018-08-20T02:51:52.713Z,99093.67
2018-08-20T02:54:57.636Z,99092.79
2018-08-20T02:58:02.560Z,99084.75
2018-08-20T03:01:07.493Z,99090.56
2018-08-20T03:04:12.449Z,99089.58
2018-08-20T03:07:17.361Z,99084.49
2018-08-20T03:10:22.288Z,99085.69
2018-08-20T03:13:27.212Z,99078.80
2018-08-20T03:16:32.456Z,99078.13
2018-08-20T03:19:37.328Z,99074.48
2018-08-20T03:22:42.283Z,99075.52
2018-08-20T03:25:47.236Z,99080.80
2018-08-20T03:28:52.188Z,99074.95
2018-08-20T03:31:57.116Z,99077.34
2018-08-20T03:35:02.049Z,99072.67
2018-08-20T03:38:07.019Z,99071.84
2018-08-20T03:41:11.984Z,99070.39
2018-08-20T03:44:16.920Z,99075.41
2018-08-20T03:47:21.872Z,99070.84
2018-08-20T03:50:26.800Z,99075.66
2018-08-20T03:53:31.784Z,99074.68
2018-08-20T03:56:36.745Z,99078.36
2018-08-20T03:59:41.654Z,99073.75
2018-08-20T04:02:46.541Z,99076.44
2018-08-20T04:05:51.457Z,99080.39
2018-08-20T04:08:56.350Z,99082.34
2018-08-20T04:12:02.155Z,99081.05
2018-08-20T04:15:07.054Z,99086.13
2018-08-20T04:18:11.957Z,99089.61
2018-08-20T04:21:16.849Z,99084.51
2018-08-20T04:24:21.779Z,99083.72
2018-08-20T04:27:26.669Z,99082.50
2018-08-20T04:30:31.620Z,99081.81
2018-08-20T04:33:36.478Z,99079.86
2018-08-20T04:36:41.528Z,99084.94
2018-08-20T04:40:03.775Z,99085.25
2018-08-20T04:43:09.118Z,99081.67
2018-08-20T04:46:14.057Z,99082.14
2018-08-20T04:49:18.954Z,99084.51
2018-08-20T04:52:23.842Z,99082.03
2018-08-20T04:55:28.733Z,99081.99
2018-08-20T04:58:33.667Z,99085.50
2018-08-20T05:01:38.557Z,99088.14
2018-08-20T05:04:43.446Z,99092.36
2018-08-20T05:07:48.342Z,99094.63
2018-08-20T05:10:53.240Z,99093.19
2018-08-20T05:13:58.127Z,99088.36
2018-08-20T05:17:03.081Z,99092.11
2018-08-20T05:20:08.661Z,99100.31
2018-08-20T05:23:13.559Z,99103.16
2018-08-20T05:26:19.153Z,99102.08
2018-08-20T05:29:24.042Z,99110.54
2018-08-20T05:32:29.056Z,99107.23
2018-08-20T05:35:34.022Z,99108.31
2018-08-20T05:38:38.937Z,99099.17
2018-08-20T05:41:43.885Z,99108.12
2018-08-20T05:44:49.018Z,99107.95
2018-08-20T05:47:53.832Z,99117.03
2018-08-20T05:50:58.836Z,99117.52
2018-08-20T05:54:03.989Z,99123.22
2018-08-20T05:57:09.064Z,99126.72
2018-08-20T06:00:15.957Z,99124.85
2018-08-20T06:03:20.952Z,99128.00
2018-08-20T06:06:25.912Z,99131.31
2018-08-20T06:09:30.895Z,99129.17
2018-08-20T06:12:36.372Z,99129.46
2018-08-20T06:15:41.384Z,99132.58
2018-08-20T06:18:46.368Z,99130.56
2018-08-20T06:21:51.374Z,99130.29
2018-08-20T06:24:56.371Z,99139.84
2018-08-20T06:28:01.349Z,99146.01
2018-08-20T06:31:06.349Z,99144.63
2018-08-20T06:34:11.377Z,99138.00
2018-08-20T06:37:16.337Z,99140.67
2018-08-20T06:40:21.339Z,99144.83
2018-08-20T06:43:26.337Z,99141.44
2018-08-20T06:46:31.381Z,99143.44
2018-08-20T06:49:36.410Z,99143.78
2018-08-20T06:52:42.923Z,99134.93
2018-08-20T06:55:47.921Z,99138.86
2018-08-20T06:58:53.193Z,99135.44
2018-08-20T07:01:58.230Z,99145.42
2018-08-20T07:05:16.781Z,99142.16
2018-08-20T07:08:21.874Z,99151.24
2018-08-20T07:11:27.051Z,99147.86
2018-08-20T07:14:32.126Z,99144.11
2018-08-20T07:17:37.472Z,99146.74
2018-08-20T07:20:42.461Z,99148.41
2018-08-20T07:23:47.466Z,99149.05
2018-08-20T07:26:52.456Z,99150.38
2018-08-20T07:29:57.409Z,99152.70
2018-08-20T07:33:02.528Z,99153.70
2018-08-20T07:36:07.441Z,99139.11
2018-08-20T07:39:12.392Z,99140.14
2018-08-20T07:42:18.215Z,99134.41
2018-08-20T07:45:23.136Z,99140.33
2018-08-20T07:48:28.117Z,99138.38
2018-08-20T07:51:33.096Z,99143.36
2018-08-20T07:54:38.876Z,99145.16
2018-08-20T07:57:43.852Z,99148.08
2018-08-20T08:00:48.817Z,99155.43
2018-08-20T08:03:53.777Z,99155.49
2018-08-20T08:06:58.766Z,99151.59
2018-08-20T08:10:05.601Z,99152.25
2018-08-20T08:13:10.576Z,99148.13
2018-08-20T08:16:15.534Z,99154.81
2018-08-20T08:19:20.512Z,99155.19
2018-08-20T08:22:25.473Z,99147.13
2018-08-20T08:25:30.465Z,99149.55
2018-08-20T08:28:35.493Z,99150.23
2018-08-20T08:31:40.522Z,99142.83
2018-08-20T08:34:45.521Z,99140.68
2018-08-20T08:37:50.484Z,99138.63
2018-08-20T08:40:55.538Z,99134.80
2018-08-20T08:44:00.501Z,99138.22
2018-08-20T08:47:05.684Z,99138.27
2018-08-20T08:50:11.005Z,99136.91
2018-08-20T08:53:16.071Z,99131.02
2018-08-20T08:56:21.058Z,99135.94
2018-08-20T08:59:26.248Z,99130.89
2018-08-20T09:02:31.262Z,99135.24
2018-08-20T09:05:36.196Z,99136.14
2018-08-20T09:08:41.161Z,99137.27
2018-08-20T09:11:46.100Z,99136.94
2018-08-20T09:14:51.024Z,99145.42
2018-08-20T09:17:56.049Z,99142.05
2018-08-20T09:21:00.974Z,99138.86
2018-08-20T09:24:05.977Z,99141.17
2018-08-20T09:27:11.017Z,99142.19
2018-08-20T09:30:18.900Z,99144.89
2018-08-20T09:33:23.797Z,99144.77
2018-08-20T09:36:28.709Z,99136.38
2018-08-20T09:39:33.761Z,99127.62
2018-08-20T09:42:39.497Z,99127.68
2018-08-20T09:45:44.429Z,99131.84
2018-08-20T09:48:49.468Z,99133.05
2018-08-20T09:51:54.368Z,99130.58
2018-08-20T09:54:59.623Z,99128.00
2018-08-20T09:58:04.609Z,99127.20
2018-08-20T10:01:09.585Z,99137.55
2018-08-20T10:04:14.774Z,99133.09
2018-08-20T10:07:19.746Z,99132.28
2018-08-20T10:10:24.660Z,99132.56
2018-08-20T10:13:29.581Z,99132.28
2018-08-20T10:16:49.753Z,99131.28
2018-08-20T10:19:54.708Z,99124.08
2018-08-20T10:22:59.686Z,99119.66
2018-08-20T10:26:05.258Z,99122.83
2018-08-20T10:29:10.254Z,99129.20
2018-08-20T10:32:15.161Z,99128.76
2018-08-20T10:35:20.137Z,99122.50
2018-08-20T10:38:25.178Z,99123.22
2018-08-20T10:41:30.091Z,99125.25
2018-08-20T10:44:40.653Z,99120.77
2018-08-20T10:47:47.012Z,99115.17
2018-08-20T10:50:51.940Z,99110.42
2018-08-20T10:53:56.892Z,99105.22
2018-08-20T10:57:02.137Z,99113.03
2018-08-20T11:00:07.553Z,99122.61
2018-08-20T11:03:12.554Z,99123.96
2018-08-20T11:06:17.536Z,99123.02
2018-08-20T11:09:22.522Z,99118.14
2018-08-20T11:12:27.669Z,99122.59
2018-08-20T11:15:32.665Z,99113.48
2018-08-20T11:18:37.632Z,99111.25
2018-08-20T11:21:42.633Z,99112.58
2018-08-20T11:24:47.657Z,99106.88
2018-08-20T11:27:52.633Z,99104.91
2018-08-20T11:30:57.598Z,99113.45
2018-08-20T11:34:02.638Z,99097.69
2018-08-20T11:37:07.645Z,99091.97
2018-08-20T11:40:12.668Z,99087.15
2018-08-20T11:43:17.696Z,99088.91
2018-08-20T11:46:22.669Z,99086.23
2018-08-20T11:49:27.644Z,99083.48
2018-08-20T11:52:32.585Z,99079.88
2018-08-20T11:55:51.376Z,99082.20
2018-08-20T11:58:57.137Z,99078.73
2018-08-20T12:02:02.247Z,99072.13
2018-08-20T12:05:08.099Z,99073.02
2018-08-20T12:08:13.065Z,99077.41
2018-08-20T12:11:18.024Z,99083.12
2018-08-20T12:14:23.224Z,99082.64
2018-08-20T12:17:28.201Z,99080.36
2018-08-20T12:20:33.149Z,99084.36
2018-08-20T12:23:38.197Z,99071.59
2018-08-20T12:26:43.168Z,99067.22
2018-08-20T12:29:48.156Z,99062.81
2018-08-20T12:32:53.128Z,99062.38
2018-08-20T12:35:58.117Z,99060.62
2018-08-20T12:39:04.190Z,99064.13
2018-08-20T12:42:09.162Z,99064.61
2018-08-20T12:45:14.130Z,99066.78
2018-08-20T12:48:19.073Z,99067.16
2018-08-20T12:52:12.314Z,99065.24
2018-08-20T12:55:17.314Z,99074.66
2018-08-20T12:58:22.384Z,99064.36
2018-08-20T13:01:27.365Z,99068.75
2018-08-20T13:04:32.366Z,99068.58
2018-08-20T13:07:37.355Z,99059.47
2018-08-20T13:10:42.316Z,99059.69
2018-08-20T13:13:47.278Z,99050.17
2018-08-20T13:16:52.243Z,99053.80
2018-08-20T13:19:57.208Z,99051.73
2018-08-20T13:23:02.165Z,99052.19
2018-08-20T13:26:07.165Z,99047.76
2018-08-20T13:29:12.133Z,99044.67
2018-08-20T13:32:17.151Z,99049.08
2018-08-20T13:35:22.115Z,99041.09
2018-08-20T13:38:27.109Z,99040.97
2018-08-20T13:41:32.056Z,99046.33
2018-08-20T13:44:37.381Z,99044.52
2018-08-20T13:47:42.325Z,99040.59
2018-08-20T13:50:47.316Z,99035.81
2018-08-20T13:53:52.272Z,99039.33
2018-08-20T13:56:57.250Z,99044.11
2018-08-20T14:00:02.261Z,99040.08
2018-08-20T14:03:07.267Z,99040.87
2018-08-20T14:06:12.222Z,99038.06
2018-08-20T14:09:17.150Z,99042.84
2018-08-20T14:12:22.132Z,99044.55
2018-08-20T14:15:27.094Z,99043.16
2018-08-20T14:18:32.058Z,99050.84
2018-08-20T14:22:26.336Z,99057.69
2018-08-20T14:25:31.553Z,99050.72
2018-08-20T14:28:36.517Z,99043.84
2018-08-20T14:31:41.478Z,99047.56
2018-08-20T14:34:46.470Z,99040.67
2018-08-20T14:37:51.465Z,99039.68
2018-08-20T14:40:56.424Z,99044.39
2018-08-20T14:44:01.365Z,99039.37
2018-08-20T14:47:06.346Z,99041.43
2018-08-20T14:50:13.388Z,99042.30
2018-08-20T14:53:18.361Z,99041.84
2018-08-20T14:56:23.317Z,99036.56
2018-08-20T14:59:28.310Z,99040.95
2018-08-20T15:02:33.318Z,99035.55
2018-08-20T15:05:38.340Z,99029.47
2018-08-20T15:08:43.293Z,99025.03
2018-08-20T15:11:48.298Z,99026.80
2018-08-20T15:14:53.268Z,99025.26
2018-08-20T15:17:58.240Z,99028.75
2018-08-20T15:21:03.656Z,99014.38
2018-08-20T15:24:08.604Z,99018.31
2018-08-20T15:27:13.602Z,99010.35
2018-08-20T15:30:18.568Z,99028.34
2018-08-20T15:33:23.581Z,99021.62
2018-08-20T15:36:28.553Z,99025.66
2018-08-20T15:39:33.707Z,99015.67
2018-08-20T15:42:38.625Z,99023.45
2018-08-20T15:45:43.621Z,99023.45
2018-08-20T15:48:49.078Z,99018.56
2018-08-20T15:51:54.048Z,99016.38
2018-08-20T15:54:59.021Z,99020.17
2018-08-20T15:58:04.348Z,99013.89
2018-08-20T16:01:09.442Z,99015.84
2018-08-20T16:04:14.746Z,99009.62
2018-08-20T16:07:19.901Z,99014.55
2018-08-20T16:10:24.841Z,99009.98
2018-08-20T16:13:29.835Z,99009.51
2018-08-20T16:16:34.816Z,99005.09
2018-08-20T16:19:40.289Z,99002.50
2018-08-20T16:22:45.269Z,99001.57
2018-08-20T16:25:50.289Z,99001.88
2018-08-20T16:28:55.290Z,99003.77
2018-08-20T16:32:00.369Z,98990.99
2018-08-20T16:35:07.396Z,98992.83
2018-08-20T16:38:12.425Z,98994.64
2018-08-20T16:41:17.379Z,98994.63
2018-08-20T16:44:22.546Z,98993.47
2018-08-20T16:47:27.674Z,98991.61
2018-08-20T16:50:32.696Z,98987.75
2018-08-20T16:53:37.857Z,98992.95
2018-08-20T16:56:43.983Z,98992.58
2018-08-20T16:59:48.981Z,98991.22
2018-08-20T17:02:53.953Z,98981.09
2018-08-20T17:05:58.905Z,98986.78
2018-08-20T17:09:04.577Z,98992.83
2018-08-20T17:12:09.616Z,98990.97
2018-08-20T17:15:16.210Z,98986.05
2018-08-20T17:18:21.249Z,98985.92
2018-08-20T17:21:26.216Z,98991.20
2018-08-20T17:24:36.904Z,98988.86
2018-08-20T17:27:43.988Z,98986.22
2018-08-20T17:30:52.494Z,98986.05
2018-08-20T17:33:57.485Z,98994.01
2018-08-20T17:37:02.841Z,98991.84
2018-08-20T17:40:09.231Z,98990.38
2018-08-20T17:43:15.489Z,98996.28
2018-08-20T17:46:20.453Z,99002.42
2018-08-20T17:49:28.847Z,99003.17
2018-08-20T17:52:39.241Z,99002.26
2018-08-20T17:55:44.226Z,99012.73
2018-08-20T17:58:51.380Z,99013.00
2018-08-20T18:01:56.337Z,99013.00
2018-08-20T18:05:01.303Z,99014.31
2018-08-20T18:08:06.300Z,99018.02
2018-08-20T18:11:11.320Z,99019.33
2018-08-20T18:14:17.239Z,99020.94
2018-08-20T18:17:22.206Z,99017.09
2018-08-20T18:20:28.789Z,99020.53
2018-08-20T18:23:34.645Z,99028.48
2018-08-20T18:26:45.188Z,99029.83
2018-08-20T18:29:50.177Z,99037.24
2018-08-20T18:32:55.146Z,99037.02
2018-08-20T18:36:04.757Z,99029.08
2018-08-20T18:39:11.768Z,99039.07
2018-08-20T18:42:16.956Z,99037.56
2018-08-20T18:45:21.936Z,99036.15
2018-08-20T18:48:33.265Z,99046.63
2018-08-20T18:51:38.244Z,99047.20
2018-08-20T18:54:46.888Z,99047.48
2018-08-20T18:57:51.854Z,99051.75
2018-08-20T19:00:56.829Z,99052.80
2018-08-20T19:04:01.769Z,99061.84
2018-08-20T19:07:08.166Z,99067.65
2018-08-20T19:10:19.315Z,99075.52
2018-08-20T19:13:24.241Z,99081.29
2018-08-20T19:16:30.683Z,99085.12
2018-08-20T19:19:40.320Z,99080.50
2018-08-20T19:22:45.243Z,99085.89
2018-08-20T19:25:50.182Z,99087.66
2018-08-20T19:28:55.134Z,99086.17
2018-08-20T19:32:00.069Z,99089.16
2018-08-20T19:35:04.989Z,99093.15
2018-08-20T19:38:09.908Z,99102.81
2018-08-20T19:41:15.049Z,99104.44
2018-08-20T19:44:19.949Z,99109.04
2018-08-20T19:47:24.861Z,99116.41
2018-08-20T19:50:29.796Z,99116.16
2018-08-20T19:53:34.733Z,99114.40
2018-08-20T19:56:39.648Z,99115.63
2018-08-20T19:59:44.596Z,99110.56
2018-08-20T20:02:49.565Z,99115.03
2018-08-20T20:05:54.563Z,99118.23
2018-08-20T20:09:06.693Z,99123.48
2018-08-20T20:12:11.667Z,99129.37
2018-08-20T20:15:16.619Z,99126.59
2018-08-20T20:18:21.553Z,99131.53
2018-08-20T20:21:26.521Z,99141.48
2018-08-20T20:24:31.705Z,99144.97
2018-08-20T20:27:36.678Z,99132.97
2018-08-20T20:30:41.644Z,99144.02
2018-08-20T20:33:46.605Z,99151.14
2018-08-20T20:36:51.561Z,99149.34
2018-08-20T20:39:59.563Z,99148.16
2018-08-20T20:43:04.538Z,99147.41
2018-08-20T20:46:09.861Z,99147.25
2018-08-20T20:49:14.833Z,99149.93
2018-08-20T20:52:19.834Z,99149.84
2018-08-20T20:55:24.788Z,99151.50
2018-08-20T20:58:32.777Z,99159.34
2018-08-20T21:01:37.819Z,99155.52
2018-08-20T21:04:42.622Z,99155.95
2018-08-20T21:07:48.562Z,99162.27
2018-08-20T21:10:53.493Z,99167.56
2018-08-20T21:13:58.723Z,99164.94
2018-08-20T21:17:03.656Z,99174.19
2018-08-20T21:20:08.600Z,99165.40
2018-08-20T21:23:13.524Z,99166.77
2018-08-20T21:26:18.456Z,99169.69
2018-08-20T21:29:24.844Z,99164.78
2018-08-20T21:32:30.018Z,99170.63
2018-08-20T21:35:34.924Z,99170.23
2018-08-20T21:38:43.892Z,99170.98
2018-08-20T21:41:49.124Z,99172.59
2018-08-20T21:44:54.069Z,99173.86
2018-08-20T21:47:59.045Z,99177.20
2018-08-20T21:52:12.557Z,99184.63
2018-08-20T21:55:17.454Z,99186.52
2018-08-20T22:02:32.007Z,99194.46
2018-08-20T22:05:36.941Z,99198.55
2018-08-20T22:08:41.917Z,99197.00
2018-08-20T22:11:46.899Z,99202.55
2018-08-20T22:14:51.868Z,99201.66
2018-08-20T22:17:57.137Z,99202.66
2018-08-20T22:21:02.401Z,99203.25
2018-08-20T22:24:07.387Z,99209.36
2018-08-20T22:27:12.345Z,99210.67
2018-08-20T22:30:17.348Z,99204.13
2018-08-20T22:33:22.473Z,99207.45
2018-08-20T22:36:28.749Z,99217.58
2018-08-20T22:39:33.743Z,99216.27
2018-08-20T22:42:46.081Z,99215.08
2018-08-20T22:45:51.040Z,99213.13
2018-08-20T22:48:58.133Z,99214.75
2018-08-20T22:52:03.700Z,99209.36
2018-08-20T22:55:08.916Z,99208.39
2018-08-20T22:58:13.889Z,99212.05
2018-08-20T23:01:19.076Z,99218.94
2018-08-20T23:04:24.558Z,99214.75
2018-08-20T23:07:29.797Z,99220.41
2018-08-20T23:10:37.693Z,99218.89
2018-08-20T23:13:42.656Z,99221.73
2018-08-20T23:16:48.564Z,99220.44
2018-08-20T23:19:53.749Z,99221.11
2018-08-20T23:22:58.978Z,99229.91
2018-08-20T23:26:07.677Z,99226.77
2018-08-20T23:29:12.670Z,99229.64
2018-08-20T23:32:17.593Z,99231.41
2018-08-20T23:35:22.917Z,99225.24
2018-08-20T23:38:28.748Z,99227.05
2018-08-20T23:41:33.693Z,99229.38
2018-08-20T23:44:38.653Z,99226.73
2018-08-20T23:47:43.589Z,99228.07
2018-08-20T23:50:58.680Z,99226.63
2018-08-20T23:54:03.776Z,99231.55
2018-08-20T23:57:08.737Z,99230.52
